createdAt,value
2023-03-26T00:00:01.596Z,99827.25
2023-03-26T00:02:35.528Z,99840.47
2023-03-26T00:05:07.466Z,99833.94
2023-03-26T00:07:40.401Z,99843.31
2023-03-26T00:10:12.690Z,99838.94
2023-03-26T00:12:47.623Z,99838.16
2023-03-26T00:15:20.459Z,99844.81
2023-03-26T00:17:54.660Z,99845.31
2023-03-26T00:20:28.561Z,99835.28
2023-03-26T00:23:02.261Z,99850.66
2023-03-26T00:25:35.878Z,99846.97
2023-03-26T00:28:11.258Z,99855.34
2023-03-26T00:30:43.259Z,99850.66
2023-03-26T00:33:18.520Z,99847.47
2023-03-26T00:35:55.394Z,99845.66
2023-03-26T00:38:29.467Z,99842.47
2023-03-26T00:41:07.293Z,99852.84
2023-03-26T00:43:41.844Z,99847.47
2023-03-26T00:46:15.477Z,99854.69
2023-03-26T00:48:48.013Z,99857.69
2023-03-26T00:51:21.778Z,99855.19
2023-03-26T00:53:54.201Z,99850.31
2023-03-26T00:56:25.592Z,99855.34
2023-03-26T00:59:00.578Z,99857.66
2023-03-26T01:01:35.657Z,99853.00
2023-03-26T01:04:28.756Z,99864.03
2023-03-26T01:07:05.027Z,99845.97
2023-03-26T01:09:43.682Z,99850.66
2023-03-26T01:12:19.758Z,99861.03
2023-03-26T01:14:58.169Z,99867.75
2023-03-26T01:17:34.447Z,99867.06
2023-03-26T01:20:16.014Z,99874.09
2023-03-26T01:22:52.852Z,99868.41
2023-03-26T01:25:34.994Z,99876.25
2023-03-26T01:28:13.442Z,99876.06
2023-03-26T01:30:52.669Z,99879.75
2023-03-26T01:33:34.558Z,99864.88
2023-03-26T01:36:17.366Z,99878.22
2023-03-26T01:39:01.216Z,99873.72
2023-03-26T01:41:44.907Z,99879.56
2023-03-26T01:44:29.185Z,99879.00
2023-03-26T01:47:04.560Z,99863.31
2023-03-26T01:49:37.160Z,99871.28
2023-03-26T01:52:18.830Z,99875.53
2023-03-26T01:54:50.747Z,99873.97
2023-03-26T01:57:35.978Z,99874.97
2023-03-26T02:00:21.662Z,99878.66
2023-03-26T02:03:05.172Z,99875.13
2023-03-26T02:05:40.791Z,99869.97
2023-03-26T02:08:23.031Z,99868.06
2023-03-26T02:10:59.370Z,99871.75
2023-03-26T02:13:34.500Z,99881.16
2023-03-26T02:16:10.895Z,99875.47
2023-03-26T02:18:44.687Z,99880.50
2023-03-26T02:21:20.584Z,99873.63
2023-03-26T02:23:58.587Z,99877.09
2023-03-26T02:26:30.089Z,99876.06
2023-03-26T02:29:05.123Z,99876.28
2023-03-26T02:31:37.470Z,99869.75
2023-03-26T02:34:09.200Z,99871.38
2023-03-26T02:36:43.356Z,99869.91
2023-03-26T02:39:16.136Z,99879.94
2023-03-26T02:41:47.619Z,99876.06
2023-03-26T02:44:22.171Z,99883.28
2023-03-26T02:46:53.713Z,99881.25
2023-03-26T02:49:25.870Z,99884.75
2023-03-26T02:51:58.173Z,99883.41
2023-03-26T02:54:30.122Z,99887.56
2023-03-26T02:57:01.544Z,99884.56
2023-03-26T02:59:36.848Z,99893.63
2023-03-26T03:02:08.455Z,99899.97
2023-03-26T03:04:40.758Z,99896.94
2023-03-26T03:07:18.882Z,99899.34
2023-03-26T03:09:51.626Z,99907.88
2023-03-26T03:12:23.202Z,99903.50
2023-03-26T03:14:57.714Z,99906.19
2023-03-26T03:17:29.332Z,99901.66
2023-03-26T03:20:01.235Z,99899.97
2023-03-26T03:22:34.468Z,99910.75
2023-03-26T03:25:09.985Z,99907.88
2023-03-26T03:27:42.264Z,99896.84
2023-03-26T03:30:17.978Z,99904.38
2023-03-26T03:32:49.589Z,99905.56
2023-03-26T03:35:21.610Z,99908.25
2023-03-26T03:37:55.813Z,99911.09
2023-03-26T03:40:27.798Z,99916.25
2023-03-26T03:42:59.121Z,99915.56
2023-03-26T03:45:34.559Z,99914.78
2023-03-26T03:48:06.173Z,99911.94
2023-03-26T03:50:37.972Z,99915.41
2023-03-26T03:53:09.589Z,99917.56
2023-03-26T03:55:42.369Z,99912.63
2023-03-26T03:58:15.012Z,99919.28
2023-03-26T04:00:49.762Z,99910.63
2023-03-26T04:03:33.264Z,99917.97
2023-03-26T04:06:07.232Z,99926.41
2023-03-26T04:08:39.178Z,99926.78
2023-03-26T04:11:11.303Z,99922.09
2023-03-26T04:13:43.214Z,99929.84
2023-03-26T04:16:18.864Z,99939.34
2023-03-26T04:18:51.014Z,99939.72
2023-03-26T04:21:24.567Z,99936.50
2023-03-26T04:23:56.928Z,99935.28
2023-03-26T04:26:32.081Z,99933.13
2023-03-26T04:29:07.116Z,99927.97
2023-03-26T04:31:43.723Z,99926.09
2023-03-26T04:34:24.749Z,99926.41
2023-03-26T04:36:57.497Z,99928.09
2023-03-26T04:39:30.733Z,99921.34
2023-03-26T04:42:02.906Z,99922.34
2023-03-26T04:44:35.718Z,99929.66
2023-03-26T04:47:10.772Z,99933.03
2023-03-26T04:49:42.624Z,99927.88
2023-03-26T04:52:15.877Z,99928.53
2023-03-26T04:54:49.105Z,99932.66
2023-03-26T04:57:28.367Z,99931.41
2023-03-26T05:00:00.408Z,99935.38
2023-03-26T05:02:38.020Z,99934.66
2023-03-26T05:05:10.597Z,99938.69
2023-03-26T05:07:42.795Z,99932.94
2023-03-26T05:10:20.585Z,99928.34
2023-03-26T05:12:52.779Z,99943.78
2023-03-26T05:15:25.772Z,99938.31
2023-03-26T05:18:00.756Z,99928.97
2023-03-26T05:20:34.133Z,99938.94
2023-03-26T05:23:07.798Z,99932.06
2023-03-26T05:25:40.042Z,99930.91
2023-03-26T05:28:14.529Z,99930.22
2023-03-26T05:30:46.745Z,99935.94
2023-03-26T05:33:21.943Z,99931.59
2023-03-26T05:36:04.600Z,99929.19
2023-03-26T05:38:40.079Z,99942.63
2023-03-26T05:41:14.632Z,99944.69
2023-03-26T05:43:48.855Z,99942.44
2023-03-26T05:46:23.371Z,99941.84
2023-03-26T05:48:58.781Z,99940.16
2023-03-26T05:51:30.745Z,99948.56
2023-03-26T05:54:03.051Z,99949.53
2023-03-26T05:56:34.992Z,99945.50
2023-03-26T05:59:07.185Z,99952.75
2023-03-26T06:01:39.006Z,99944.69
2023-03-26T06:04:16.576Z,99950.53
2023-03-26T06:06:48.660Z,99948.56
2023-03-26T06:09:20.917Z,99942.88
2023-03-26T06:11:53.609Z,99955.13
2023-03-26T06:14:25.804Z,99954.13
2023-03-26T06:16:57.748Z,99952.31
2023-03-26T06:19:32.569Z,99958.22
2023-03-26T06:22:04.341Z,99946.88
2023-03-26T06:24:36.978Z,99952.44
2023-03-26T06:27:08.802Z,99960.94
2023-03-26T06:29:41.018Z,99960.44
2023-03-26T06:32:19.611Z,99968.72
2023-03-26T06:34:55.126Z,99966.22
2023-03-26T06:37:26.806Z,99971.22
2023-03-26T06:39:58.928Z,99963.00
2023-03-26T06:43:08.668Z,99961.19
2023-03-26T06:45:24.340Z,99973.91
2023-03-26T06:47:56.247Z,99972.72
2023-03-26T06:50:32.533Z,99957.53
2023-03-26T06:53:04.371Z,99969.13
2023-03-26T06:55:36.571Z,99969.44
2023-03-26T06:58:08.434Z,99970.16
2023-03-26T07:00:40.712Z,99970.06
2023-03-26T07:03:12.505Z,99972.25
2023-03-26T07:05:47.302Z,99970.72
2023-03-26T07:08:19.891Z,99972.09
2023-03-26T07:10:52.309Z,99975.44
2023-03-26T07:13:24.341Z,99976.59
2023-03-26T07:15:56.630Z,99976.91
2023-03-26T07:18:28.609Z,99975.41
2023-03-26T07:21:03.699Z,99975.09
2023-03-26T07:23:36.111Z,99970.06
2023-03-26T07:26:26.226Z,99964.03
2023-03-26T07:29:05.419Z,99967.69
2023-03-26T07:31:46.273Z,99969.50
2023-03-26T07:34:35.138Z,99974.56
2023-03-26T07:37:17.800Z,99966.06
2023-03-26T07:39:58.528Z,99965.56
2023-03-26T07:42:44.513Z,99965.38
2023-03-26T07:45:25.813Z,99960.34
2023-03-26T07:47:57.832Z,99977.59
2023-03-26T07:50:29.712Z,99973.41
2023-03-26T07:53:04.619Z,99978.09
2023-03-26T07:55:36.982Z,99979.59
2023-03-26T07:58:25.055Z,99975.38
2023-03-26T08:01:04.212Z,99972.72
2023-03-26T08:04:23.632Z,99970.22
2023-03-26T08:07:01.612Z,99978.75
2023-03-26T08:09:43.397Z,99969.88
2023-03-26T08:12:26.133Z,99961.97
2023-03-26T08:15:08.643Z,99963.31
2023-03-26T08:17:48.155Z,99973.59
2023-03-26T08:20:32.220Z,99963.72
2023-03-26T08:23:12.305Z,99965.03
2023-03-26T08:26:03.062Z,99968.38
2023-03-26T08:28:51.100Z,99970.56
2023-03-26T08:31:36.749Z,99973.75
2023-03-26T08:34:10.336Z,99961.19
2023-03-26T08:36:43.353Z,99965.88
2023-03-26T08:39:14.929Z,99960.81
2023-03-26T08:42:14.797Z,99960.47
2023-03-26T08:45:15.701Z,99951.03
2023-03-26T08:48:17.688Z,99959.75
2023-03-26T08:50:48.784Z,99949.69
2023-03-26T08:53:40.687Z,99945.56
2023-03-26T08:56:23.411Z,99947.53
2023-03-26T08:59:00.925Z,99951.00
2023-03-26T09:01:58.470Z,99945.34
2023-03-26T09:04:45.152Z,99936.59
2023-03-26T09:07:45.845Z,99933.31
2023-03-26T09:10:48.416Z,99935.69
2023-03-26T09:13:38.057Z,99925.97
2023-03-26T09:16:32.145Z,99926.88
2023-03-26T09:19:30.238Z,99925.38
2023-03-26T09:22:29.122Z,99919.38
2023-03-26T09:25:21.612Z,99944.00
2023-03-26T09:28:08.520Z,99930.09
2023-03-26T09:30:42.896Z,99928.44
2023-03-26T09:33:35.259Z,99935.03
2023-03-26T09:36:25.174Z,99929.66
2023-03-26T09:39:07.769Z,99944.63
2023-03-26T09:41:46.391Z,99948.31
2023-03-26T09:44:51.407Z,99942.75
2023-03-26T09:47:43.456Z,99935.88
2023-03-26T09:50:24.493Z,99948.50
2023-03-26T09:53:15.907Z,99945.34
2023-03-26T09:55:53.305Z,99944.19
2023-03-26T09:58:56.057Z,99949.25
2023-03-26T10:01:42.678Z,99955.09
2023-03-26T10:04:27.822Z,99953.16
2023-03-26T10:07:10.108Z,99944.47
2023-03-26T10:09:57.225Z,99957.69
2023-03-26T10:12:38.904Z,99947.81
2023-03-26T10:15:30.639Z,99950.06
2023-03-26T10:18:27.188Z,99953.97
2023-03-26T10:21:08.747Z,99942.63
2023-03-26T10:24:37.050Z,99940.81
2023-03-26T10:27:28.661Z,99939.78
2023-03-26T10:30:39.597Z,99945.31
2023-03-26T10:33:25.212Z,99935.44
2023-03-26T10:36:14.341Z,99937.63
2023-03-26T10:39:03.555Z,99934.28
2023-03-26T10:41:46.772Z,99939.09
2023-03-26T10:44:53.798Z,99942.97
2023-03-26T10:47:49.353Z,99945.81
2023-03-26T10:50:50.592Z,99959.47
2023-03-26T10:53:35.123Z,99947.09
2023-03-26T10:56:16.875Z,99946.91
2023-03-26T10:58:50.604Z,99938.53
2023-03-26T11:01:39.553Z,99939.88
2023-03-26T11:04:28.492Z,99932.25
2023-03-26T11:07:12.080Z,99930.84
2023-03-26T11:09:52.931Z,99936.34
2023-03-26T11:12:36.662Z,99932.47
2023-03-26T11:15:23.385Z,99930.56
2023-03-26T11:18:09.985Z,99929.72
2023-03-26T11:20:51.078Z,99937.00
2023-03-26T11:23:37.084Z,99923.59
2023-03-26T11:26:14.704Z,99918.47
2023-03-26T11:29:03.849Z,99923.78
2023-03-26T11:32:08.960Z,99912.78
2023-03-26T11:34:48.538Z,99920.50
2023-03-26T11:37:27.214Z,99917.91
2023-03-26T11:40:03.220Z,99922.56
2023-03-26T11:42:36.162Z,99918.72
2023-03-26T11:45:17.976Z,99915.66
2023-03-26T11:47:54.941Z,99907.53
2023-03-26T11:50:33.059Z,99909.78
2023-03-26T11:53:17.355Z,99910.97
2023-03-26T11:55:59.524Z,99912.09
2023-03-26T11:58:37.017Z,99902.94
2023-03-26T12:01:18.034Z,99902.13
2023-03-26T12:04:07.831Z,99905.00
2023-03-26T12:06:53.513Z,99897.69
2023-03-26T12:09:27.331Z,99897.03
2023-03-26T12:12:07.113Z,99897.19
2023-03-26T12:14:39.172Z,99893.66
2023-03-26T12:17:15.199Z,99890.53
2023-03-26T12:19:51.124Z,99875.78
2023-03-26T12:22:38.216Z,99875.34
2023-03-26T12:25:21.751Z,99870.59
2023-03-26T12:27:56.872Z,99874.88
2023-03-26T12:30:31.250Z,99871.63
2023-03-26T12:33:07.563Z,99861.03
2023-03-26T12:35:41.541Z,99864.25
2023-03-26T12:38:28.410Z,99862.72
2023-03-26T12:44:42.259Z,99855.47
2023-03-26T12:44:54.549Z,99854.00
2023-03-26T12:47:57.773Z,99853.63
2023-03-26T12:50:17.554Z,99866.09
2023-03-26T12:53:11.174Z,99861.19
2023-03-26T12:55:58.974Z,99864.28
2023-03-26T12:58:48.323Z,99860.66
2023-03-26T13:01:31.533Z,99858.75
2023-03-26T13:04:18.154Z,99857.22
2023-03-26T13:06:59.600Z,99858.56
2023-03-26T13:09:53.182Z,99852.16
2023-03-26T13:12:41.317Z,99851.13
2023-03-26T13:15:24.757Z,99854.06
2023-03-26T13:18:11.579Z,99848.84
2023-03-26T13:20:57.772Z,99852.69
2023-03-26T13:23:41.283Z,99848.19
2023-03-26T13:26:22.770Z,99851.13
2023-03-26T13:29:10.876Z,99850.94
2023-03-26T13:31:51.976Z,99841.09
2023-03-26T13:34:34.561Z,99847.22
2023-03-26T13:37:17.177Z,99839.16
2023-03-26T13:40:01.243Z,99828.69
2023-03-26T13:42:46.344Z,99834.94
2023-03-26T13:45:37.862Z,99835.09
2023-03-26T13:48:17.852Z,99836.31
2023-03-26T13:51:00.117Z,99837.56
2023-03-26T13:53:38.299Z,99832.13
2023-03-26T13:56:15.312Z,99840.16
2023-03-26T13:58:54.098Z,99833.19
2023-03-26T14:01:43.862Z,99828.50
2023-03-26T14:04:25.100Z,99832.91
2023-03-26T14:07:07.264Z,99832.47
2023-03-26T14:09:48.640Z,99827.59
2023-03-26T14:12:34.305Z,99827.16
2023-03-26T14:15:11.990Z,99828.19
2023-03-26T14:17:53.565Z,99826.41
2023-03-26T14:20:57.602Z,99824.44
2023-03-26T14:23:42.374Z,99823.84
2023-03-26T14:26:29.917Z,99815.81
2023-03-26T14:29:28.942Z,99819.16
2023-03-26T14:32:24.519Z,99815.00
2023-03-26T14:35:23.790Z,99816.78
2023-03-26T14:38:10.436Z,99824.22
2023-03-26T14:41:01.136Z,99814.34
2023-03-26T14:43:55.884Z,99823.59
2023-03-26T14:46:43.118Z,99815.00
2023-03-26T14:49:37.133Z,99812.50
2023-03-26T14:52:16.929Z,99822.56
2023-03-26T14:54:55.789Z,99804.63
2023-03-26T14:57:46.611Z,99801.34
2023-03-26T15:00:48.421Z,99808.84
2023-03-26T15:04:01.973Z,99796.31
2023-03-26T15:07:19.188Z,99808.66
2023-03-26T15:10:40.948Z,99806.34
2023-03-26T15:13:42.790Z,99797.94
2023-03-26T15:16:44.690Z,99795.59
2023-03-26T15:19:52.345Z,99808.06
2023-03-26T15:22:43.832Z,99799.81
2023-03-26T15:25:45.903Z,99795.84
2023-03-26T15:28:56.669Z,99811.41
2023-03-26T15:31:54.225Z,99797.78
2023-03-26T15:34:58.342Z,99796.94
2023-03-26T15:37:59.963Z,99806.13
2023-03-26T15:40:54.567Z,99803.59
2023-03-26T15:43:33.489Z,99806.13
2023-03-26T15:46:36.288Z,99800.56
2023-03-26T15:49:17.166Z,99801.56
2023-03-26T15:51:57.869Z,99802.50
2023-03-26T15:54:34.523Z,99803.97
2023-03-26T15:57:20.261Z,99805.06
2023-03-26T16:00:12.772Z,99803.03
2023-03-26T16:02:56.234Z,99804.59
2023-03-26T16:05:39.473Z,99804.97
2023-03-26T16:08:22.392Z,99800.25
2023-03-26T16:10:58.585Z,99801.38
2023-03-26T16:13:46.490Z,99805.44
2023-03-26T16:16:28.491Z,99808.31
2023-03-26T16:19:41.559Z,99808.09
2023-03-26T16:22:19.010Z,99809.13
2023-03-26T16:25:28.569Z,99816.38
2023-03-26T16:28:30.888Z,99806.13
2023-03-26T16:31:37.555Z,99815.84
2023-03-26T16:34:42.426Z,99821.94
2023-03-26T16:37:40.186Z,99825.75
2023-03-26T16:40:31.228Z,99823.25
2023-03-26T16:43:17.348Z,99825.47
2023-03-26T16:45:55.358Z,99826.50
2023-03-26T16:48:33.729Z,99824.00
2023-03-26T16:51:19.065Z,99823.75
2023-03-26T16:53:58.981Z,99826.25
2023-03-26T16:56:39.058Z,99828.28
2023-03-26T16:59:37.747Z,99826.69
2023-03-26T17:02:25.161Z,99817.34
2023-03-26T17:05:09.723Z,99823.66
2023-03-26T17:07:50.582Z,99830.38
2023-03-26T17:10:33.763Z,99829.53
2023-03-26T17:13:11.304Z,99826.31
2023-03-26T17:15:51.688Z,99835.97
2023-03-26T17:18:39.172Z,99830.41
2023-03-26T17:21:18.629Z,99837.25
2023-03-26T17:24:15.388Z,99834.94
2023-03-26T17:26:58.822Z,99839.25
2023-03-26T17:29:55.205Z,99839.94
2023-03-26T17:32:58.221Z,99846.28
2023-03-26T17:35:42.944Z,99849.38
2023-03-26T17:38:45.258Z,99852.88
2023-03-26T17:41:58.209Z,99854.03
2023-03-26T17:44:43.627Z,99853.59
2023-03-26T17:47:28.335Z,99862.94
2023-03-26T17:50:06.265Z,99859.94
2023-03-26T17:52:52.706Z,99859.31
2023-03-26T17:55:31.300Z,99867.47
2023-03-26T17:58:08.889Z,99859.94
2023-03-26T18:00:46.675Z,99871.53
2023-03-26T18:03:24.696Z,99874.84
2023-03-26T18:06:00.677Z,99868.84
2023-03-26T18:08:45.678Z,99876.00
2023-03-26T18:11:39.549Z,99867.97
2023-03-26T18:14:42.496Z,99877.19
2023-03-26T18:17:24.265Z,99874.84
2023-03-26T18:19:58.574Z,99876.50
2023-03-26T18:22:32.440Z,99870.50
2023-03-26T18:25:05.941Z,99875.66
2023-03-26T18:27:43.249Z,99879.31
2023-03-26T18:30:23.146Z,99877.31
2023-03-26T18:33:00.251Z,99878.69
2023-03-26T18:35:55.933Z,99882.22
2023-03-26T18:38:35.679Z,99884.06
2023-03-26T18:41:20.238Z,99891.75
2023-03-26T18:43:51.995Z,99884.03
2023-03-26T18:46:28.061Z,99890.25
2023-03-26T18:49:00.416Z,99897.63
2023-03-26T18:51:43.216Z,99897.13
2023-03-26T18:54:24.499Z,99902.66
2023-03-26T18:56:59.345Z,99897.31
2023-03-26T18:59:34.175Z,99903.34
2023-03-26T19:02:16.962Z,99892.63
2023-03-26T19:04:51.343Z,99888.63
2023-03-26T19:07:27.605Z,99910.19
2023-03-26T19:10:00.671Z,99904.84
2023-03-26T19:12:37.157Z,99907.00
2023-03-26T19:15:15.416Z,99893.78
2023-03-26T19:17:57.116Z,99902.66
2023-03-26T19:20:32.341Z,99907.19
2023-03-26T19:23:05.664Z,99904.69
2023-03-26T19:25:43.903Z,99906.50
2023-03-26T19:28:22.134Z,99909.44
2023-03-26T19:30:58.946Z,99906.97
2023-03-26T19:33:41.031Z,99906.81
2023-03-26T19:36:23.032Z,99910.63
2023-03-26T19:38:57.509Z,99910.34
2023-03-26T19:41:33.676Z,99910.31
2023-03-26T19:44:19.611Z,99909.47
2023-03-26T19:46:54.304Z,99915.84
2023-03-26T19:49:35.452Z,99920.00
2023-03-26T19:52:18.425Z,99904.47
2023-03-26T19:55:00.066Z,99920.50
2023-03-26T19:57:36.947Z,99923.16
2023-03-26T20:00:16.782Z,99920.31
2023-03-26T20:02:57.900Z,99923.94
2023-03-26T20:05:36.929Z,99927.50
2023-03-26T20:08:17.107Z,99931.16
2023-03-26T20:10:49.622Z,99939.63
2023-03-26T20:13:21.722Z,99935.94
2023-03-26T20:16:05.534Z,99943.31
2023-03-26T20:18:39.150Z,99950.09
2023-03-26T20:21:17.857Z,99940.31
2023-03-26T20:23:50.129Z,99955.03
2023-03-26T20:26:24.571Z,99961.28
2023-03-26T20:28:57.566Z,99948.91
2023-03-26T20:31:30.763Z,99954.88
2023-03-26T20:34:03.055Z,99970.91
2023-03-26T20:36:39.670Z,99953.75
2023-03-26T20:39:12.514Z,99975.31
2023-03-26T20:41:49.066Z,99971.69
2023-03-26T20:44:23.457Z,99979.88
2023-03-26T20:46:57.699Z,99985.78
2023-03-26T20:49:30.196Z,99984.88
2023-03-26T20:52:05.577Z,99991.78
2023-03-26T20:54:38.053Z,99988.97
2023-03-26T20:57:13.937Z,99982.50
2023-03-26T20:59:46.441Z,99979.13
2023-03-26T21:02:20.766Z,99987.03
2023-03-26T21:04:54.372Z,99982.09
2023-03-26T21:07:29.695Z,99984.63
2023-03-26T21:10:03.720Z,99989.94
2023-03-26T21:12:43.853Z,99993.41
2023-03-26T21:15:23.423Z,99989.63
2023-03-26T21:17:58.234Z,99994.91
2023-03-26T21:20:33.284Z,100008.41
2023-03-26T21:23:14.994Z,100000.47
2023-03-26T21:25:56.862Z,100007.34
2023-03-26T21:28:42.224Z,100006.13
2023-03-26T21:31:19.173Z,100008.41
2023-03-26T21:33:55.740Z,100012.78
2023-03-26T21:36:28.663Z,100008.41
2023-03-26T21:39:06.908Z,100011.53
2023-03-26T21:41:46.846Z,100008.25
2023-03-26T21:44:21.966Z,100021.00
2023-03-26T21:46:54.610Z,100011.31
2023-03-26T21:49:27.687Z,100017.50
2023-03-26T21:52:00.426Z,100012.16
2023-03-26T21:54:37.431Z,100020.34
2023-03-26T21:57:35.466Z,100016.56
2023-03-26T22:00:15.987Z,100020.91
2023-03-26T22:02:59.188Z,100026.59
2023-03-26T22:05:42.032Z,100022.63
2023-03-26T22:08:23.785Z,100022.22
2023-03-26T22:10:59.087Z,100030.97
2023-03-26T22:13:31.373Z,100033.59
2023-03-26T22:16:03.916Z,100035.38
2023-03-26T22:18:36.060Z,100032.84
2023-03-26T22:21:09.142Z,100038.84
2023-03-26T22:23:41.227Z,100033.56
2023-03-26T22:26:16.706Z,100039.72
2023-03-26T22:28:48.946Z,100052.34
2023-03-26T22:31:21.655Z,100041.28
2023-03-26T22:33:54.236Z,100042.84
2023-03-26T22:36:27.850Z,100039.03
2023-03-26T22:38:59.863Z,100051.94
2023-03-26T22:41:35.330Z,100055.91
2023-03-26T22:44:19.232Z,100058.69
2023-03-26T22:46:55.016Z,100058.81
2023-03-26T22:49:30.594Z,100063.59
2023-03-26T22:52:03.196Z,100055.91
2023-03-26T22:54:37.156Z,100057.97
2023-03-26T22:57:12.403Z,100059.53
2023-03-26T22:59:44.526Z,100066.22
2023-03-26T23:02:17.452Z,100063.13
2023-03-26T23:05:03.252Z,100057.81
2023-03-26T23:07:36.336Z,100072.53
2023-03-26T23:10:09.791Z,100071.72
2023-03-26T23:12:45.197Z,100073.66
2023-03-26T23:15:16.954Z,100078.31
2023-03-26T23:17:54.736Z,100086.28
2023-03-26T23:20:34.390Z,100086.00
2023-03-26T23:23:09.732Z,100085.56
2023-03-26T23:25:42.490Z,100091.19
2023-03-26T23:28:26.326Z,100096.09
2023-03-26T23:31:03.136Z,100101.13
2023-03-26T23:33:40.396Z,100105.03
2023-03-26T23:36:13.426Z,100107.28
2023-03-26T23:38:47.215Z,100111.03
2023-03-26T23:41:25.741Z,100108.25
2023-03-26T23:44:02.616Z,100116.25
2023-03-26T23:46:36.609Z,100121.41
2023-03-26T23:49:17.455Z,100126.16
2023-03-26T23:51:54.903Z,100126.72
2023-03-26T23:54:28.471Z,100132.19
2023-03-26T23:57:02.262Z,100134.97
2023-03-26T23:59:39.031Z,100149.78
